createdAt,value
2017-06-08T00:01:23.485Z,93.50
2017-06-08T00:03:49.442Z,94.60
2017-06-08T00:06:15.453Z,93.60
2017-06-08T00:08:41.405Z,93.90
2017-06-08T00:11:07.378Z,94.00
2017-06-08T00:13:34.103Z,93.60
2017-06-08T00:16:00.838Z,94.10
2017-06-08T00:18:27.613Z,93.70
2017-06-08T00:20:53.614Z,93.70
2017-06-08T00:23:19.581Z,93.80
2017-06-08T00:25:46.325Z,93.20
2017-06-08T00:28:12.289Z,92.80
2017-06-08T00:30:38.273Z,93.80
2017-06-08T00:33:04.230Z,92.80
2017-06-08T00:35:30.223Z,93.30
2017-06-08T00:37:56.205Z,92.30
2017-06-08T00:40:22.221Z,92.90
2017-06-08T00:42:48.177Z,92.30
2017-06-08T00:45:14.138Z,92.60
2017-06-08T00:47:40.120Z,93.10
2017-06-08T00:50:06.075Z,92.70
2017-06-08T00:52:32.101Z,92.90
2017-06-08T00:54:58.801Z,92.90
2017-06-08T00:57:24.790Z,92.80
2017-06-08T00:59:50.746Z,93.00
2017-06-08T01:02:16.734Z,92.80
2017-06-08T01:04:42.684Z,92.90
2017-06-08T01:07:08.678Z,92.90
2017-06-08T01:09:34.633Z,93.50
2017-06-08T01:12:00.697Z,94.00
2017-06-08T01:14:26.711Z,94.70
2017-06-08T01:16:52.681Z,94.20
2017-06-08T01:19:18.660Z,93.80
2017-06-08T01:21:44.641Z,94.00
2017-06-08T01:24:10.628Z,93.50
2017-06-08T01:26:37.330Z,93.80
2017-06-08T01:29:03.285Z,93.70
2017-06-08T01:31:29.275Z,94.00
2017-06-08T01:33:55.991Z,93.90
2017-06-08T01:36:22.728Z,93.70
2017-06-08T01:38:48.674Z,93.70
2017-06-08T01:41:14.634Z,93.80
2017-06-08T01:43:41.368Z,93.10
2017-06-08T01:46:08.065Z,93.30
2017-06-08T01:48:34.016Z,93.30
2017-06-08T01:50:59.996Z,93.00
2017-06-08T01:53:25.972Z,92.20
2017-06-08T01:55:51.967Z,92.00
2017-06-08T01:58:17.917Z,92.00
2017-06-08T02:00:43.860Z,92.50
2017-06-08T02:03:09.861Z,92.50
2017-06-08T02:05:35.803Z,92.10
2017-06-08T02:08:01.789Z,92.20
2017-06-08T02:10:27.814Z,92.10
2017-06-08T02:12:53.774Z,92.50
2017-06-08T02:15:19.730Z,92.60
2017-06-08T02:17:45.721Z,92.90
2017-06-08T02:20:11.685Z,92.80
2017-06-08T02:22:37.659Z,93.20
2017-06-08T02:25:03.653Z,93.50
2017-06-08T02:27:29.634Z,94.10
2017-06-08T02:29:56.437Z,94.40
2017-06-08T02:32:22.449Z,94.30
2017-06-08T02:34:48.410Z,94.60
2017-06-08T02:37:14.365Z,94.60
2017-06-08T02:39:40.349Z,94.10
2017-06-08T02:42:06.325Z,94.70
2017-06-08T02:44:32.377Z,94.00
2017-06-08T02:46:58.374Z,93.70
2017-06-08T02:49:24.378Z,95.00
2017-06-08T02:52:05.313Z,95.00
2017-06-08T02:54:31.314Z,94.60
2017-06-08T02:56:57.306Z,94.40
2017-06-08T02:59:23.272Z,94.00
2017-06-08T03:01:49.269Z,94.30
2017-06-08T03:04:15.229Z,94.60
2017-06-08T03:06:41.977Z,94.10
2017-06-08T03:09:07.945Z,94.00
2017-06-08T03:11:33.921Z,94.40
2017-06-08T03:13:59.941Z,94.20
2017-06-08T03:16:26.898Z,94.20
2017-06-08T03:18:52.873Z,94.00
2017-06-08T03:21:18.874Z,94.50
2017-06-08T03:23:44.833Z,93.90
2017-06-08T03:26:11.525Z,93.60
2017-06-08T03:28:37.513Z,93.50
2017-06-08T03:31:03.509Z,94.00
2017-06-08T03:33:29.494Z,93.00
2017-06-08T03:35:56.278Z,92.80
2017-06-08T03:38:22.257Z,92.70
2017-06-08T03:40:48.206Z,92.70
2017-06-08T03:43:14.206Z,93.20
2017-06-08T03:45:40.161Z,93.10
2017-06-08T03:48:06.130Z,93.10
2017-06-08T03:50:32.205Z,92.60
2017-06-08T03:52:58.181Z,92.10
2017-06-08T03:55:24.137Z,92.20
2017-06-08T03:57:50.121Z,92.10
2017-06-08T04:00:16.133Z,92.40
2017-06-08T04:02:42.085Z,92.10
2017-06-08T04:05:08.072Z,92.70
2017-06-08T04:07:34.050Z,92.10
2017-06-08T04:10:00.025Z,91.60
2017-06-08T04:12:26.060Z,90.90
2017-06-08T04:14:52.027Z,92.00
2017-06-08T04:17:18.033Z,91.80
2017-06-08T04:19:44.001Z,91.30
2017-06-08T04:22:09.961Z,91.80
2017-06-08T04:24:35.952Z,92.00
2017-06-08T04:27:01.934Z,92.00
2017-06-08T04:29:27.946Z,91.50
2017-06-08T04:31:53.901Z,90.20
2017-06-08T04:34:19.861Z,90.00
2017-06-08T04:36:45.853Z,89.30
2017-06-08T04:39:11.801Z,90.50
2017-06-08T04:41:37.812Z,88.20
2017-06-08T04:44:03.769Z,89.10
2017-06-08T04:46:29.753Z,87.20
2017-06-08T04:48:56.503Z,85.20
2017-06-08T04:51:22.541Z,85.20
2017-06-08T04:53:48.494Z,85.00
2017-06-08T04:56:14.463Z,83.70
2017-06-08T04:58:40.469Z,83.30
2017-06-08T05:01:06.432Z,83.30
2017-06-08T05:03:32.385Z,83.70
2017-06-08T05:05:58.413Z,84.20
2017-06-08T05:08:24.373Z,83.10
2017-06-08T05:10:50.328Z,82.60
2017-06-08T05:13:16.372Z,82.50
2017-06-08T05:15:42.351Z,82.60
2017-06-08T05:18:08.305Z,81.80
2017-06-08T05:20:34.317Z,83.70
2017-06-08T05:23:00.285Z,80.80
2017-06-08T05:25:26.255Z,81.00
2017-06-08T05:27:52.253Z,81.40
2017-06-08T05:30:18.216Z,79.50
2017-06-08T05:32:44.182Z,79.00
2017-06-08T05:35:10.178Z,79.10
2017-06-08T05:37:36.150Z,78.30
2017-06-08T05:40:02.110Z,78.90
2017-06-08T05:42:28.442Z,79.70
2017-06-08T05:44:54.425Z,79.80
2017-06-08T05:47:20.386Z,78.80
2017-06-08T05:49:47.141Z,78.20
2017-06-08T05:52:13.133Z,78.10
2017-06-08T05:54:39.837Z,79.00
2017-06-08T05:57:05.826Z,79.00
2017-06-08T05:59:31.862Z,79.20
2017-06-08T06:01:57.825Z,78.10
2017-06-08T06:04:23.786Z,78.90
2017-06-08T06:06:50.529Z,77.20
2017-06-08T06:09:16.485Z,77.20
2017-06-08T06:11:42.446Z,74.90
2017-06-08T06:14:08.433Z,75.50
2017-06-08T06:16:35.149Z,74.70
2017-06-08T06:19:01.153Z,74.60
2017-06-08T06:21:27.122Z,74.60
2017-06-08T06:23:53.097Z,75.30
2017-06-08T06:26:19.094Z,75.20
2017-06-08T06:28:45.096Z,74.40
2017-06-08T06:31:11.049Z,73.80
2017-06-08T06:33:37.093Z,72.80
2017-06-08T06:36:03.081Z,73.60
2017-06-08T06:38:29.073Z,73.70
2017-06-08T06:40:55.108Z,73.90
2017-06-08T06:43:21.102Z,73.20
2017-06-08T06:45:47.065Z,73.40
2017-06-08T06:48:13.813Z,72.40
2017-06-08T06:50:39.764Z,72.30
2017-06-08T06:53:05.742Z,71.20
2017-06-08T06:55:31.749Z,71.30
2017-06-08T06:57:57.718Z,71.00
2017-06-08T07:00:23.673Z,69.90
2017-06-08T07:02:49.678Z,69.90
2017-06-08T07:05:15.629Z,70.20
2017-06-08T07:07:41.573Z,70.10
2017-06-08T07:10:07.654Z,69.20
2017-06-08T07:12:33.642Z,68.30
2017-06-08T07:14:59.607Z,69.80
2017-06-08T07:17:25.608Z,69.70
2017-06-08T07:19:51.577Z,69.00
2017-06-08T07:22:17.566Z,68.00
2017-06-08T07:24:43.894Z,67.90
2017-06-08T07:27:09.856Z,66.90
2017-06-08T07:29:35.822Z,68.00
2017-06-08T07:32:01.822Z,67.90
2017-06-08T07:34:27.818Z,67.60
2017-06-08T07:36:53.785Z,67.90
2017-06-08T07:39:19.774Z,69.40
2017-06-08T07:41:45.732Z,67.80
2017-06-08T07:44:11.731Z,67.20
2017-06-08T07:46:37.677Z,68.30
2017-06-08T07:49:03.627Z,67.90
2017-06-08T07:51:29.662Z,68.10
2017-06-08T07:53:55.617Z,65.50
2017-06-08T07:56:21.617Z,63.70
2017-06-08T07:58:47.598Z,65.20
2017-06-08T08:01:40.808Z,62.80
2017-06-08T08:04:06.785Z,63.40
2017-06-08T08:06:33.500Z,60.00
2017-06-08T08:08:59.597Z,59.90
2017-06-08T08:11:25.561Z,58.80
2017-06-08T08:13:51.518Z,58.70
2017-06-08T08:16:17.500Z,58.20
2017-06-08T08:18:43.452Z,59.10
2017-06-08T08:21:09.405Z,58.60
2017-06-08T08:23:35.406Z,59.70
2017-06-08T08:26:01.373Z,57.80
2017-06-08T08:28:27.349Z,55.40
2017-06-08T08:30:53.346Z,55.50
2017-06-08T08:33:19.292Z,55.30
2017-06-08T08:35:45.245Z,55.50
2017-06-08T08:38:11.261Z,55.20
2017-06-08T08:40:37.229Z,56.40
2017-06-08T08:43:03.201Z,55.20
2017-06-08T08:45:29.205Z,52.90
2017-06-08T08:47:55.157Z,53.90
2017-06-08T08:50:21.112Z,54.20
2017-06-08T08:52:47.101Z,54.20
2017-06-08T08:55:13.104Z,54.50
2017-06-08T08:57:39.100Z,53.10
2017-06-08T09:00:05.821Z,53.50
2017-06-08T09:02:31.774Z,53.50
2017-06-08T09:04:57.789Z,54.10
2017-06-08T09:07:23.745Z,53.70
2017-06-08T09:09:49.685Z,51.40
2017-06-08T09:12:15.683Z,50.40
2017-06-08T09:14:48.576Z,50.70
2017-06-08T09:17:14.601Z,51.60
2017-06-08T09:19:40.557Z,51.30
2017-06-08T09:22:07.241Z,51.00
2017-06-08T09:24:33.237Z,51.00
2017-06-08T09:26:59.260Z,49.70
2017-06-08T09:29:25.278Z,50.50
2017-06-08T09:31:51.225Z,50.20
2017-06-08T09:34:17.936Z,49.90
2017-06-08T09:36:43.926Z,49.80
2017-06-08T09:39:09.899Z,50.20
2017-06-08T09:41:35.889Z,48.30
2017-06-08T09:44:01.949Z,49.20
2017-06-08T09:46:27.948Z,49.40
2017-06-08T09:48:53.917Z,49.80
2017-06-08T09:51:19.905Z,50.80
2017-06-08T09:53:46.633Z,48.30
2017-06-08T09:56:13.325Z,47.40
2017-06-08T09:58:39.318Z,47.40
2017-06-08T10:01:12.241Z,48.60
2017-06-08T10:03:38.236Z,47.40
2017-06-08T10:06:04.957Z,48.90
2017-06-08T10:08:31.665Z,46.80
2017-06-08T10:10:57.671Z,46.80
2017-06-08T10:13:23.631Z,47.10
2017-06-08T10:15:49.610Z,47.60
2017-06-08T10:18:16.310Z,47.10
2017-06-08T10:20:42.264Z,47.00
2017-06-08T10:23:08.249Z,46.30
2017-06-08T10:25:34.202Z,46.00
2017-06-08T10:28:00.230Z,46.20
2017-06-08T10:30:26.320Z,46.10
2017-06-08T10:32:52.312Z,45.70
2017-06-08T10:35:18.278Z,45.10
2017-06-08T10:37:44.237Z,45.10
2017-06-08T10:40:10.271Z,46.30
2017-06-08T10:42:36.222Z,45.80
2017-06-08T10:45:02.309Z,46.50
2017-06-08T10:47:28.344Z,45.00
2017-06-08T10:49:55.053Z,43.20
2017-06-08T10:52:21.003Z,43.00
2017-06-08T10:54:46.989Z,43.70
2017-06-08T10:57:13.681Z,44.50
2017-06-08T10:59:39.636Z,44.50
2017-06-08T11:02:05.616Z,41.70
2017-06-08T11:04:32.421Z,44.00
2017-06-08T11:06:58.381Z,43.50
2017-06-08T11:09:24.337Z,42.00
2017-06-08T11:11:50.327Z,42.00
2017-06-08T11:14:16.313Z,42.50
2017-06-08T11:16:42.257Z,41.10
2017-06-08T11:19:08.266Z,40.80
2017-06-08T11:21:34.217Z,41.90
2017-06-08T11:24:00.939Z,42.90
2017-06-08T11:26:27.681Z,39.50
2017-06-08T11:28:53.669Z,39.20
2017-06-08T11:31:20.361Z,41.20
2017-06-08T11:33:46.304Z,41.20
2017-06-08T11:36:13.041Z,43.60
2017-06-08T11:38:39.748Z,41.10
2017-06-08T11:41:05.725Z,41.10
2017-06-08T11:43:31.706Z,40.30
2017-06-08T11:45:57.685Z,40.20
2017-06-08T11:48:23.661Z,41.00
2017-06-08T11:50:49.618Z,39.00
2017-06-08T11:53:15.637Z,38.50
2017-06-08T11:55:41.633Z,39.50
2017-06-08T11:58:07.590Z,38.20
2017-06-08T12:00:33.533Z,39.10
2017-06-08T12:03:00.282Z,39.50
2017-06-08T12:05:26.357Z,39.50
2017-06-08T12:07:52.308Z,37.70
2017-06-08T12:10:18.293Z,37.40
2017-06-08T12:12:44.281Z,36.90
2017-06-08T12:15:10.230Z,37.30
2017-06-08T12:17:36.185Z,37.10
2017-06-08T12:20:02.212Z,37.00
2017-06-08T12:22:35.012Z,37.60
2017-06-08T12:25:01.032Z,36.90
2017-06-08T12:27:27.017Z,34.70
2017-06-08T12:29:52.974Z,33.90
2017-06-08T12:32:18.998Z,34.30
2017-06-08T12:34:44.986Z,32.20
2017-06-08T12:37:10.957Z,31.50
2017-06-08T12:39:36.954Z,31.30
2017-06-08T12:42:03.641Z,30.00
2017-06-08T12:44:29.634Z,30.00
2017-06-08T12:46:55.597Z,27.80
2017-06-08T12:49:22.346Z,27.40
2017-06-08T12:51:48.323Z,27.40
2017-06-08T12:54:14.280Z,28.00
2017-06-08T12:56:40.273Z,28.40
2017-06-08T12:59:06.305Z,28.80
2017-06-08T13:01:32.288Z,29.40
2017-06-08T13:03:58.254Z,29.50
2017-06-08T13:06:24.285Z,30.80
2017-06-08T13:08:50.282Z,31.50
2017-06-08T13:11:16.982Z,30.90
2017-06-08T13:13:42.966Z,30.20
2017-06-08T13:16:08.941Z,30.00
2017-06-08T13:18:34.930Z,29.50
2017-06-08T13:21:00.945Z,29.40
2017-06-08T13:23:26.902Z,29.20
2017-06-08T13:25:52.857Z,29.80
2017-06-08T13:28:18.874Z,30.90
2017-06-08T13:30:45.629Z,31.10
2017-06-08T13:33:11.581Z,31.10
2017-06-08T13:35:37.532Z,30.80
2017-06-08T13:38:03.524Z,30.30
2017-06-08T13:40:29.493Z,30.00
2017-06-08T13:42:55.441Z,30.00
2017-06-08T13:45:22.162Z,28.00
2017-06-08T13:47:48.125Z,27.90
2017-06-08T13:50:14.133Z,27.40
2017-06-08T13:52:40.095Z,28.00
2017-06-08T13:55:06.789Z,28.30
2017-06-08T13:57:32.800Z,28.20
2017-06-08T13:59:58.805Z,28.80
2017-06-08T14:02:24.755Z,29.50
2017-06-08T14:04:51.476Z,28.00
2017-06-08T14:07:18.207Z,27.60
2017-06-08T14:09:44.158Z,27.50
2017-06-08T14:12:10.113Z,26.10
2017-06-08T14:14:36.126Z,25.70
2017-06-08T14:17:02.812Z,24.70
2017-06-08T14:19:28.785Z,24.60
2017-06-08T14:21:54.777Z,23.40
2017-06-08T14:24:20.738Z,24.30
2017-06-08T14:26:46.692Z,23.30
2017-06-08T14:29:12.773Z,22.40
2017-06-08T14:31:39.489Z,22.20
2017-06-08T14:34:05.474Z,22.10
2017-06-08T14:36:31.563Z,22.50
2017-06-08T14:38:57.559Z,22.70
2017-06-08T14:41:23.509Z,21.30
2017-06-08T14:43:49.510Z,21.60
2017-06-08T14:46:15.555Z,23.50
2017-06-08T14:48:41.525Z,24.80
2017-06-08T14:51:07.477Z,22.00
2017-06-08T14:53:34.232Z,23.10
2017-06-08T14:56:02.433Z,22.80
2017-06-08T14:58:28.425Z,22.70
2017-06-08T15:00:54.422Z,22.90
2017-06-08T15:03:20.369Z,22.70
2017-06-08T15:05:46.361Z,21.40
2017-06-08T15:08:12.348Z,21.30
2017-06-08T15:10:38.293Z,22.50
2017-06-08T15:13:04.293Z,22.00
2017-06-08T15:15:30.259Z,23.50
2017-06-08T15:17:56.225Z,24.10
2017-06-08T15:20:22.261Z,24.60
2017-06-08T15:22:48.982Z,24.90
2017-06-08T15:25:15.697Z,24.60
2017-06-08T15:27:41.680Z,24.60
2017-06-08T15:30:07.677Z,25.00
2017-06-08T15:32:33.633Z,25.20
2017-06-08T15:35:00.413Z,26.20
2017-06-08T15:37:26.365Z,26.20
2017-06-08T15:39:53.065Z,27.10
2017-06-08T15:42:19.053Z,27.10
2017-06-08T15:44:45.029Z,28.00
2017-06-08T15:47:10.995Z,28.20
2017-06-08T15:49:36.993Z,28.20
2017-06-08T15:52:02.943Z,28.80
2017-06-08T15:54:29.677Z,28.70
2017-06-08T15:56:55.711Z,28.70
2017-06-08T15:59:21.665Z,28.50
2017-06-08T16:01:47.625Z,28.70
2017-06-08T16:04:13.621Z,29.40
2017-06-08T16:06:39.589Z,28.90
2017-06-08T16:09:05.541Z,29.10
2017-06-08T16:11:31.545Z,28.80
2017-06-08T16:13:57.590Z,29.70
2017-06-08T16:16:23.554Z,29.70
2017-06-08T16:18:49.518Z,29.00
2017-06-08T16:21:15.513Z,29.70
2017-06-08T16:23:41.474Z,30.00
2017-06-08T16:26:07.432Z,29.80
2017-06-08T16:28:33.448Z,29.70
2017-06-08T16:30:59.436Z,29.90
2017-06-08T16:33:25.413Z,30.70
2017-06-08T16:35:51.417Z,31.10
2017-06-08T16:38:17.381Z,30.50
2017-06-08T16:40:43.337Z,31.00
2017-06-08T16:43:09.341Z,31.10
2017-06-08T16:45:35.294Z,31.90
2017-06-08T16:48:01.352Z,31.70
2017-06-08T16:50:27.397Z,31.70
2017-06-08T16:52:53.344Z,31.90
2017-06-08T16:55:19.341Z,31.70
2017-06-08T16:57:45.437Z,32.20
2017-06-08T17:00:11.385Z,31.60
2017-06-08T17:02:37.333Z,32.00
2017-06-08T17:05:03.371Z,32.50
2017-06-08T17:07:29.390Z,32.30
2017-06-08T17:09:55.349Z,32.20
2017-06-08T17:12:21.344Z,32.50
2017-06-08T17:14:47.293Z,32.60
2017-06-08T17:17:13.238Z,32.80
2017-06-08T17:19:39.997Z,33.80
2017-06-08T17:22:05.945Z,33.60
2017-06-08T17:24:31.904Z,33.80
2017-06-08T17:26:57.913Z,33.60
2017-06-08T17:29:23.867Z,33.60
2017-06-08T17:31:49.887Z,33.20
2017-06-08T17:34:15.955Z,33.70
2017-06-08T17:36:41.933Z,34.00
2017-06-08T17:39:07.905Z,34.40
2017-06-08T17:41:33.925Z,34.90
2017-06-08T17:43:59.914Z,35.10
2017-06-08T17:46:25.964Z,35.30
2017-06-08T17:48:52.682Z,35.90
2017-06-08T17:51:18.645Z,35.70
2017-06-08T17:53:44.637Z,35.90
2017-06-08T17:56:10.642Z,36.60
2017-06-08T17:58:36.612Z,37.20
2017-06-08T18:01:02.612Z,36.90
2017-06-08T18:03:28.621Z,37.00
2017-06-08T18:05:54.577Z,36.70
2017-06-08T18:08:20.581Z,37.30
2017-06-08T18:10:46.537Z,37.10
2017-06-08T18:13:12.494Z,38.30
2017-06-08T18:15:39.245Z,37.70
2017-06-08T18:18:05.210Z,37.70
2017-06-08T18:20:31.176Z,38.40
2017-06-08T18:22:57.234Z,38.90
2017-06-08T18:25:23.937Z,40.00
2017-06-08T18:27:49.895Z,40.00
2017-06-08T18:30:15.886Z,41.10
2017-06-08T18:32:41.833Z,42.10
2017-06-08T18:35:07.801Z,43.40
2017-06-08T18:37:34.541Z,44.10
2017-06-08T18:40:00.513Z,44.10
2017-06-08T18:42:26.516Z,44.80
2017-06-08T18:44:52.516Z,44.60
2017-06-08T18:47:18.469Z,45.40
2017-06-08T18:49:44.421Z,44.80
2017-06-08T18:52:10.491Z,45.20
2017-06-08T18:54:36.439Z,45.60
2017-06-08T18:57:02.405Z,46.40
2017-06-08T18:59:28.465Z,46.10
2017-06-08T19:01:54.441Z,46.40
2017-06-08T19:04:20.394Z,47.00
2017-06-08T19:06:46.385Z,47.60
2017-06-08T19:09:12.351Z,48.20
2017-06-08T19:11:38.302Z,48.90
2017-06-08T19:14:04.301Z,49.70
2017-06-08T19:16:30.270Z,49.60
2017-06-08T19:18:56.237Z,49.50
2017-06-08T19:21:22.245Z,49.90
2017-06-08T19:23:48.201Z,50.70
2017-06-08T19:26:14.154Z,50.60
2017-06-08T19:28:40.146Z,51.20
2017-06-08T19:31:06.130Z,51.30
2017-06-08T19:33:32.095Z,52.00
2017-06-08T19:35:58.275Z,51.70
2017-06-08T19:38:24.241Z,52.90
2017-06-08T19:40:50.180Z,53.40
2017-06-08T19:43:16.181Z,52.80
2017-06-08T19:45:42.177Z,53.00
2017-06-08T19:48:08.137Z,54.10
2017-06-08T19:50:34.106Z,54.50
2017-06-08T19:53:00.125Z,54.00
2017-06-08T19:55:26.086Z,53.60
2017-06-08T19:57:52.037Z,54.00
2017-06-08T20:00:18.077Z,53.90
2017-06-08T20:02:44.110Z,53.70
2017-06-08T20:05:10.061Z,53.30
2017-06-08T20:07:36.053Z,54.00
2017-06-08T20:10:02.033Z,55.10
2017-06-08T20:12:28.057Z,55.10
2017-06-08T20:14:54.841Z,56.00
2017-06-08T20:17:20.789Z,56.00
2017-06-08T20:19:46.742Z,56.20
2017-06-08T20:22:12.749Z,56.30
2017-06-08T20:24:38.709Z,55.70
2017-06-08T20:27:04.666Z,55.40
2017-06-08T20:29:30.705Z,55.80
2017-06-08T20:31:56.714Z,56.00
2017-06-08T20:34:22.688Z,57.10
2017-06-08T20:36:48.697Z,57.80
2017-06-08T20:39:14.653Z,57.60
2017-06-08T20:41:40.617Z,57.00
2017-06-08T20:44:06.605Z,57.00
2017-06-08T20:46:32.629Z,57.60
2017-06-08T20:48:58.687Z,58.10
2017-06-08T20:51:24.642Z,59.10
2017-06-08T20:53:50.654Z,59.10
2017-06-08T20:56:16.958Z,59.10
2017-06-08T20:58:42.958Z,59.50
2017-06-08T21:01:08.929Z,59.00
2017-06-08T21:03:34.884Z,58.50
2017-06-08T21:06:00.912Z,58.80
2017-06-08T21:08:26.921Z,59.20
2017-06-08T21:10:52.873Z,59.10
2017-06-08T21:13:18.896Z,59.60
2017-06-08T21:15:45.605Z,58.70
2017-06-08T21:18:11.586Z,59.00
2017-06-08T21:20:37.640Z,58.80
2017-06-08T21:23:04.335Z,60.00
2017-06-08T21:25:30.294Z,60.40
2017-06-08T21:27:56.293Z,59.70
2017-06-08T21:30:22.993Z,58.90
2017-06-08T21:32:48.950Z,58.90
2017-06-08T21:35:14.940Z,59.70
2017-06-08T21:37:40.888Z,59.70
2017-06-08T21:40:06.857Z,60.30
2017-06-08T21:42:32.898Z,61.00
2017-06-08T21:44:58.858Z,61.10
2017-06-08T21:47:25.561Z,63.30
2017-06-08T21:49:51.548Z,64.10
2017-06-08T21:52:17.506Z,62.80
2017-06-08T21:54:44.197Z,65.00
2017-06-08T21:57:10.197Z,64.90
2017-06-08T21:59:36.142Z,63.30
2017-06-08T22:02:02.863Z,65.20
2017-06-08T22:04:29.622Z,67.20
2017-06-08T22:06:55.569Z,67.00
2017-06-08T22:09:21.526Z,68.00
2017-06-08T22:11:47.541Z,68.20
2017-06-08T22:14:13.502Z,68.60
2017-06-08T22:16:39.458Z,68.20
2017-06-08T22:19:05.449Z,69.40
2017-06-08T22:21:31.401Z,68.00
2017-06-08T22:23:57.349Z,67.60
2017-06-08T22:26:23.326Z,69.70
2017-06-08T22:28:49.321Z,70.80
2017-06-08T22:31:15.269Z,68.80
2017-06-08T22:33:41.221Z,70.60
2017-06-08T22:36:07.225Z,69.40
2017-06-08T22:38:33.266Z,71.10
2017-06-08T22:40:59.254Z,71.60
2017-06-08T22:43:25.208Z,72.30
2017-06-08T22:45:51.190Z,70.60
2017-06-08T22:48:17.141Z,70.20
2017-06-08T22:50:43.881Z,73.30
2017-06-08T22:53:10.578Z,72.50
2017-06-08T22:55:36.525Z,72.30
2017-06-08T22:58:02.617Z,72.20
2017-06-08T23:00:29.340Z,71.50
2017-06-08T23:02:56.050Z,72.80
2017-06-08T23:05:22.095Z,73.50
2017-06-08T23:07:48.046Z,72.40
2017-06-08T23:10:14.008Z,72.20
2017-06-08T23:12:40.001Z,73.40
2017-06-08T23:15:06.706Z,74.30
2017-06-08T23:17:32.664Z,73.30
2017-06-08T23:19:58.681Z,74.70
2017-06-08T23:22:24.634Z,73.90
2017-06-08T23:24:50.588Z,75.00
2017-06-08T23:27:16.594Z,75.20
2017-06-08T23:29:42.542Z,75.70
2017-06-08T23:32:08.495Z,75.90
2017-06-08T23:34:34.514Z,75.50
2017-06-08T23:37:00.524Z,76.00
2017-06-08T23:39:26.482Z,76.20
2017-06-08T23:41:52.435Z,75.80
2017-06-08T23:44:18.434Z,74.80
2017-06-08T23:46:45.127Z,77.50
2017-06-08T23:49:11.081Z,77.50
2017-06-08T23:51:37.058Z,78.70
2017-06-08T23:54:03.770Z,77.00
2017-06-08T23:56:29.789Z,76.00
2017-06-08T23:58:55.774Z,76.70
